Free aircraft booking by Goboko

Please sign in again to see your flying group's details

Sign in

Goboko Update

On the 31st December 2018 and 1st January 2019 we'll be migrating to a new Goboko platform and booking operations will not be possible

The new iPhone app will be available in March 2019

In the meantime, mobile device users can continue to use Goboko through a browser

Info

Aviation weather

METAR KDAB 120453Z 00000KT 10SM CLR 04/04 A3030 RMK AO2 SLP260 T00440044 401390039 $

TAF KDAB 112331Z 1200/1224 VRB03KT P6SM SKC

Aviation weather from ADDS. Re-check weather before flight.

-